createdAt,value
2019-03-01T00:01:23.103Z,99.90
2019-03-01T00:06:39.528Z,99.90
2019-03-01T00:12:00.304Z,99.90
2019-03-01T00:17:40.929Z,99.90
2019-03-01T00:23:21.370Z,99.90
2019-03-01T00:29:17.826Z,99.90
2019-03-01T00:35:11.822Z,99.90
2019-03-01T00:40:48.826Z,99.90
2019-03-01T00:45:52.181Z,99.90
2019-03-01T00:50:55.751Z,99.90
2019-03-01T00:56:02.236Z,99.90
2019-03-01T01:01:05.592Z,99.90
2019-03-01T01:06:08.785Z,99.90
2019-03-01T01:11:12.111Z,99.90
2019-03-01T01:16:17.639Z,99.90
2019-03-01T01:21:20.970Z,99.90
2019-03-01T01:26:24.457Z,99.90
2019-03-01T01:31:27.766Z,99.90
2019-03-01T01:36:33.159Z,99.90
2019-03-01T01:41:36.370Z,99.90
2019-03-01T01:46:39.679Z,99.90
2019-03-01T01:51:43.091Z,99.90
2019-03-01T01:56:46.673Z,99.90
2019-03-01T02:01:57.279Z,99.90
2019-03-01T02:07:00.700Z,99.90
2019-03-01T02:12:03.897Z,99.90
2019-03-01T02:17:07.388Z,99.90
2019-03-01T02:22:10.834Z,99.90
2019-03-01T02:27:32.953Z,99.90
2019-03-01T02:32:44.000Z,99.90
2019-03-01T02:37:50.382Z,99.90
2019-03-01T02:42:53.915Z,99.90
2019-03-01T02:47:57.279Z,99.90
2019-03-01T02:53:00.669Z,99.90
2019-03-01T02:58:04.038Z,99.90
2019-03-01T03:03:07.227Z,99.90
2019-03-01T03:08:10.731Z,99.90
2019-03-01T03:13:13.536Z,99.90
2019-03-01T03:18:20.964Z,99.90
2019-03-01T03:23:24.455Z,99.90
2019-03-01T03:28:27.790Z,99.90
2019-03-01T03:33:31.105Z,99.90
2019-03-01T03:38:34.426Z,99.90
2019-03-01T03:43:39.301Z,99.90
2019-03-01T03:48:42.675Z,99.90
2019-03-01T03:53:47.871Z,99.90
2019-03-01T03:58:51.122Z,99.90
2019-03-01T04:03:54.339Z,99.90
2019-03-01T04:08:58.804Z,99.90
2019-03-01T04:14:04.971Z,99.90
2019-03-01T04:19:11.451Z,99.90
2019-03-01T04:24:14.841Z,99.90
2019-03-01T04:29:18.219Z,99.90
2019-03-01T04:34:21.098Z,99.90
2019-03-01T04:39:27.560Z,99.90
2019-03-01T04:44:31.115Z,99.90
2019-03-01T04:49:34.492Z,99.90
2019-03-01T04:54:38.073Z,99.90
2019-03-01T04:59:44.470Z,99.90
2019-03-01T05:04:48.038Z,99.90
2019-03-01T05:09:55.590Z,99.90
2019-03-01T05:14:59.088Z,99.90
2019-03-01T05:20:14.251Z,99.90
2019-03-01T05:25:17.486Z,99.90
2019-03-01T05:30:20.808Z,99.90
2019-03-01T05:35:24.289Z,99.90
2019-03-01T05:40:33.681Z,99.90
2019-03-01T05:45:39.957Z,99.90
2019-03-01T05:50:43.434Z,99.90
2019-03-01T05:55:51.397Z,99.90
2019-03-01T06:00:57.809Z,99.90
2019-03-01T06:06:01.354Z,99.90
2019-03-01T06:12:00.448Z,99.90
2019-03-01T06:17:44.435Z,99.90
2019-03-01T06:23:18.467Z,99.90
2019-03-01T06:28:45.306Z,99.90
2019-03-01T06:34:45.370Z,99.90
2019-03-01T06:40:34.252Z,99.90
2019-03-01T06:46:37.259Z,99.90
2019-03-01T06:51:40.617Z,99.90
2019-03-01T06:56:44.020Z,99.90
2019-03-01T07:01:47.962Z,99.90
2019-03-01T07:06:57.083Z,99.90
2019-03-01T07:12:00.299Z,99.90
2019-03-01T07:17:10.844Z,99.90
2019-03-01T07:22:14.357Z,99.90
2019-03-01T07:27:17.804Z,99.90
2019-03-01T07:32:25.700Z,99.90
2019-03-01T07:37:28.847Z,99.90
2019-03-01T07:42:32.722Z,99.90
2019-03-01T07:47:36.188Z,99.90
2019-03-01T07:52:40.060Z,99.90
2019-03-01T07:57:43.239Z,99.90
2019-03-01T08:02:48.418Z,99.90
2019-03-01T08:07:56.014Z,99.90
2019-03-01T08:12:56.882Z,99.90
2019-03-01T08:18:08.218Z,99.90
2019-03-01T08:23:11.592Z,99.90
2019-03-01T08:28:24.246Z,99.90
2019-03-01T08:33:27.586Z,99.90
2019-03-01T08:38:30.615Z,99.90
2019-03-01T08:43:39.853Z,99.90
2019-03-01T08:48:43.344Z,99.90
2019-03-01T08:53:48.366Z,99.90
2019-03-01T08:59:14.115Z,99.90
2019-03-01T09:04:21.439Z,99.90
2019-03-01T09:09:25.237Z,96.20
2019-03-01T09:14:31.414Z,91.70
2019-03-01T09:19:37.831Z,84.50
2019-03-01T09:24:41.227Z,76.00
2019-03-01T09:29:45.304Z,72.90
2019-03-01T09:34:51.636Z,67.10
2019-03-01T09:39:55.011Z,57.80
2019-03-01T09:44:58.555Z,61.40
2019-03-01T09:50:02.042Z,56.90
2019-03-01T09:55:05.695Z,47.10
2019-03-01T10:00:10.628Z,45.10
2019-03-01T10:05:13.953Z,32.20
2019-03-01T10:10:21.800Z,29.10
2019-03-01T10:15:25.558Z,16.50
2019-03-01T10:20:29.382Z,17.80
2019-03-01T10:25:33.405Z,12.30
2019-03-01T10:30:37.231Z,19.50
2019-03-01T10:35:41.261Z,17.00
2019-03-01T10:40:44.904Z,19.30
2019-03-01T10:45:51.670Z,16.70
2019-03-01T10:50:55.309Z,17.00
2019-03-01T10:55:59.623Z,12.20
2019-03-01T11:01:09.002Z,10.50
2019-03-01T11:06:12.492Z,12.50
2019-03-01T11:11:16.414Z,7.70
2019-03-01T11:16:23.209Z,9.60
2019-03-01T11:21:26.827Z,12.30
2019-03-01T11:26:33.518Z,15.20
2019-03-01T11:31:43.075Z,16.10
2019-03-01T11:36:46.591Z,18.30
2019-03-01T11:41:50.039Z,14.20
2019-03-01T11:46:54.290Z,11.10
2019-03-01T11:52:00.276Z,11.90
2019-03-01T11:57:03.564Z,13.00
2019-03-01T12:02:11.234Z,7.70
2019-03-01T12:07:22.429Z,9.00
2019-03-01T12:12:25.835Z,9.70
2019-03-01T12:17:29.089Z,9.60
2019-03-01T12:22:32.392Z,2.30
2019-03-01T12:27:36.084Z,1.00
2019-03-01T12:32:44.091Z,1.00
2019-03-01T12:37:53.548Z,1.00
2019-03-01T12:42:58.890Z,1.00
2019-03-01T12:48:05.263Z,1.00
2019-03-01T12:53:14.488Z,1.00
2019-03-01T12:58:19.664Z,1.00
2019-03-01T13:03:26.015Z,1.00
2019-03-01T13:08:29.518Z,1.00
2019-03-01T13:13:39.378Z,1.00
2019-03-01T13:18:42.704Z,1.00
2019-03-01T13:23:45.920Z,1.00
2019-03-01T13:28:49.327Z,1.00
2019-03-01T13:33:52.749Z,1.00
2019-03-01T13:38:56.199Z,1.00
2019-03-01T13:44:00.381Z,1.00
2019-03-01T13:49:04.603Z,1.00
2019-03-01T13:54:08.950Z,1.00
2019-03-01T13:59:12.660Z,1.00
2019-03-01T14:04:17.297Z,1.00
2019-03-01T14:09:23.403Z,1.00
2019-03-01T14:14:27.222Z,1.00
2019-03-01T14:19:30.989Z,1.00
2019-03-01T14:24:37.406Z,1.00
2019-03-01T14:29:53.605Z,1.00
2019-03-01T14:34:54.165Z,1.00
2019-03-01T14:40:00.335Z,1.00
2019-03-01T14:45:06.636Z,1.00
2019-03-01T14:50:13.738Z,1.00
2019-03-01T14:55:19.690Z,1.00
2019-03-01T15:00:49.547Z,1.00
2019-03-01T15:05:53.426Z,1.00
2019-03-01T15:11:11.073Z,1.00
2019-03-01T15:16:23.527Z,1.00
2019-03-01T15:21:26.858Z,1.00
2019-03-01T15:26:30.186Z,1.00
2019-03-01T15:31:36.343Z,1.00
2019-03-01T15:36:39.902Z,1.00
2019-03-01T15:41:43.537Z,1.00
2019-03-01T15:46:53.181Z,1.00
2019-03-01T15:51:56.545Z,1.00
2019-03-01T15:56:59.807Z,1.00
2019-03-01T16:02:03.318Z,1.00
2019-03-01T16:07:06.729Z,1.00
2019-03-01T16:12:13.248Z,1.00
2019-03-01T16:17:16.688Z,1.00
2019-03-01T16:22:19.969Z,1.00
2019-03-01T16:27:23.307Z,1.00
2019-03-01T16:32:26.157Z,1.00
2019-03-01T16:37:31.614Z,1.00
2019-03-01T16:42:38.490Z,1.00
2019-03-01T16:47:42.090Z,1.00
2019-03-01T16:52:45.188Z,1.00
2019-03-01T16:57:52.067Z,1.00
2019-03-01T17:02:53.639Z,1.00
2019-03-01T17:07:59.845Z,1.00
2019-03-01T17:13:01.971Z,1.00
2019-03-01T17:18:11.046Z,1.00
2019-03-01T17:23:11.395Z,1.00
2019-03-01T17:28:16.406Z,1.00
2019-03-01T17:33:19.550Z,1.00
2019-03-01T17:38:22.941Z,1.00
2019-03-01T17:43:29.664Z,1.00
2019-03-01T17:48:31.149Z,1.00
2019-03-01T17:53:34.680Z,1.00
2019-03-01T17:58:38.242Z,1.00
2019-03-01T18:03:44.379Z,1.00
2019-03-01T18:08:50.858Z,1.00
2019-03-01T18:13:56.823Z,1.00
2019-03-01T18:19:01.475Z,1.00
2019-03-01T18:24:04.397Z,1.00
2019-03-01T18:29:10.891Z,1.00
2019-03-01T18:34:13.703Z,1.00
2019-03-01T18:39:17.276Z,1.00
2019-03-01T18:44:25.853Z,1.00
2019-03-01T18:49:32.089Z,1.00
2019-03-01T18:54:35.868Z,1.00
2019-03-01T18:59:40.762Z,1.00
2019-03-01T19:04:44.274Z,1.00
2019-03-01T19:09:48.720Z,1.00
2019-03-01T19:14:53.045Z,1.00
2019-03-01T19:20:02.065Z,1.00
2019-03-01T19:25:06.078Z,1.00
2019-03-01T19:30:13.714Z,1.00
2019-03-01T19:35:29.710Z,1.00
2019-03-01T19:40:34.887Z,1.00
2019-03-01T19:45:40.810Z,1.00
2019-03-01T19:50:43.624Z,1.00
2019-03-01T19:55:48.835Z,1.00
2019-03-01T20:00:52.375Z,1.00
2019-03-01T20:05:55.743Z,1.00
2019-03-01T20:10:59.258Z,1.00
2019-03-01T20:16:06.254Z,1.00
2019-03-01T20:21:16.126Z,1.00
2019-03-01T20:26:26.715Z,1.00
2019-03-01T20:31:30.316Z,1.00
2019-03-01T20:36:36.144Z,1.00
2019-03-01T20:41:46.174Z,1.00
2019-03-01T20:46:44.997Z,1.00
2019-03-01T20:51:48.681Z,1.00
2019-03-01T20:56:52.726Z,1.00
2019-03-01T21:01:57.961Z,1.00
2019-03-01T21:07:03.074Z,1.00
2019-03-01T21:12:09.345Z,1.00
2019-03-01T21:17:12.860Z,1.00
2019-03-01T21:22:16.434Z,5.70
2019-03-01T21:27:22.679Z,7.00
2019-03-01T21:32:31.344Z,12.10
2019-03-01T21:37:38.308Z,14.50
2019-03-01T21:42:42.801Z,14.60
2019-03-01T21:47:51.925Z,14.80
2019-03-01T21:52:55.362Z,12.50
2019-03-01T21:57:58.781Z,13.90
2019-03-01T22:03:01.651Z,15.50
2019-03-01T22:08:04.996Z,13.60
2019-03-01T22:13:08.401Z,15.60
2019-03-01T22:18:14.506Z,14.50
2019-03-01T22:23:18.373Z,12.20
2019-03-01T22:28:21.741Z,12.60
2019-03-01T22:33:26.943Z,11.90
2019-03-01T22:38:37.690Z,12.00
2019-03-01T22:43:43.077Z,10.80
2019-03-01T22:48:49.009Z,14.30
2019-03-01T22:53:51.620Z,14.20
2019-03-01T22:58:55.068Z,18.00
2019-03-01T23:04:01.665Z,19.00
2019-03-01T23:09:10.680Z,17.70
2019-03-01T23:14:14.004Z,16.00
2019-03-01T23:19:20.527Z,14.40
2019-03-01T23:24:23.746Z,14.50
2019-03-01T23:29:28.701Z,15.30
2019-03-01T23:34:32.199Z,12.60
2019-03-01T23:39:37.113Z,13.10
2019-03-01T23:44:41.527Z,13.80
2019-03-01T23:49:47.829Z,16.00
2019-03-01T23:54:51.396Z,15.50
2019-03-01T23:59:54.254Z,14.80
